sensor_id;sensor_type;location;lat;lon;timestamp;pressure;altitude;pressure_sealevel;temperature;humidity
64023;BME280;50264;52.088;5.296;2023-03-16T00:00:35;101735.0;;;5.14;75.3
64023;BME280;50264;52.088;5.296;2023-03-16T00:03:47;101737.0;;;5.15;75.28
64023;BME280;50264;52.088;5.296;2023-03-16T00:05:24;101740.0;;;5.05;76.91
64023;BME280;50264;52.088;5.296;2023-03-16T00:07:00;101740.0;;;5.2;74.97
64023;BME280;50264;52.088;5.296;2023-03-16T00:10:12;101736.0;;;5.24;75.75
64023;BME280;50264;52.088;5.296;2023-03-16T00:11:49;101734.0;;;5.38;74.47
64023;BME280;50264;52.088;5.296;2023-03-16T00:13:25;101733.0;;;5.42;74.05
64023;BME280;50264;52.088;5.296;2023-03-16T00:16:38;101723.0;;;5.28;75.63
64023;BME280;50264;52.088;5.296;2023-03-16T00:18:14;101715.0;;;5.37;72.87
64023;BME280;50264;52.088;5.296;2023-03-16T00:19:52;101720.0;;;5.39;74.47
64023;BME280;50264;52.088;5.296;2023-03-16T00:21:29;101715.0;;;5.47;74.36
64023;BME280;50264;52.088;5.296;2023-03-16T00:24:42;101717.0;;;5.44;73.08
64023;BME280;50264;52.088;5.296;2023-03-16T00:26:17;101712.0;;;5.48;73.05
64023;BME280;50264;52.088;5.296;2023-03-16T00:27:53;101708.0;;;5.55;75.41
64023;BME280;50264;52.088;5.296;2023-03-16T00:31:07;101706.0;;;5.43;73.69
64023;BME280;50264;52.088;5.296;2023-03-16T00:32:45;101703.0;;;5.53;74.05
64023;BME280;50264;52.088;5.296;2023-03-16T00:34:21;101697.0;;;5.56;74.55
64023;BME280;50264;52.088;5.296;2023-03-16T00:37:33;101698.0;;;5.56;74.72
64023;BME280;50264;52.088;5.296;2023-03-16T00:39:09;101699.0;;;5.51;75.91
64023;BME280;50264;52.088;5.296;2023-03-16T00:40:46;101696.0;;;5.59;74.17
64023;BME280;50264;52.088;5.296;2023-03-16T00:42:24;101696.0;;;5.49;73.47
64023;BME280;50264;52.088;5.296;2023-03-16T00:45:36;101688.0;;;5.47;74.94
64023;BME280;50264;52.088;5.296;2023-03-16T00:47:12;101691.0;;;5.49;75.48
64023;BME280;50264;52.088;5.296;2023-03-16T00:48:49;101689.0;;;5.62;74.97
64023;BME280;50264;52.088;5.296;2023-03-16T00:52:02;101692.0;;;5.66;74.36
64023;BME280;50264;52.088;5.296;2023-03-16T00:53:40;101693.0;;;5.75;74.11
64023;BME280;50264;52.088;5.296;2023-03-16T00:55:17;101684.0;;;5.64;74.25
64023;BME280;50264;52.088;5.296;2023-03-16T00:58:29;101685.0;;;5.58;78.53
64023;BME280;50264;52.088;5.296;2023-03-16T01:00:06;101680.0;;;5.54;74.11
64023;BME280;50264;52.088;5.296;2023-03-16T01:01:42;101674.0;;;5.6;74.3
64023;BME280;50264;52.088;5.296;2023-03-16T01:03:18;101662.0;;;5.65;74.16
64023;BME280;50264;52.088;5.296;2023-03-16T01:06:30;101660.0;;;5.8;74.14
64023;BME280;50264;52.088;5.296;2023-03-16T01:08:07;101660.0;;;5.71;75.91
64023;BME280;50264;52.088;5.296;2023-03-16T01:09:44;101655.0;;;5.77;75.56
64023;BME280;50264;52.088;5.296;2023-03-16T01:12:59;101648.0;;;5.67;73.81
64023;BME280;50264;52.088;5.296;2023-03-16T01:14:36;101648.0;;;5.71;74.44
64023;BME280;50264;52.088;5.296;2023-03-16T01:16:12;101645.0;;;5.71;76.52
64023;BME280;50264;52.088;5.296;2023-03-16T01:19:26;101643.0;;;5.58;76.02
64023;BME280;50264;52.088;5.296;2023-03-16T01:21:04;101641.0;;;5.72;75.44
64023;BME280;50264;52.088;5.296;2023-03-16T01:22:41;101644.0;;;5.71;75.05
64023;BME280;50264;52.088;5.296;2023-03-16T01:24:18;101648.0;;;5.69;74.72
64023;BME280;50264;52.088;5.296;2023-03-16T01:27:31;101646.0;;;5.75;77.5
64023;BME280;50264;52.088;5.296;2023-03-16T01:29:07;101639.0;;;5.73;75.55
64023;BME280;50264;52.088;5.296;2023-03-16T01:30:43;101631.0;;;5.82;74.02
64023;BME280;50264;52.088;5.296;2023-03-16T01:33:55;101630.0;;;5.85;75.2
64023;BME280;50264;52.088;5.296;2023-03-16T01:35:33;101630.0;;;5.85;75.52
64023;BME280;50264;52.088;5.296;2023-03-16T01:37:09;101623.0;;;5.92;75.47
64023;BME280;50264;52.088;5.296;2023-03-16T01:40:22;101621.0;;;5.85;76.77
64023;BME280;50264;52.088;5.296;2023-03-16T01:41:58;101622.0;;;5.8;77.25
64023;BME280;50264;52.088;5.296;2023-03-16T01:43:36;101616.0;;;5.76;77.34
64023;BME280;50264;52.088;5.296;2023-03-16T01:46:21;101611.0;;;5.84;76.19
64023;BME280;50264;52.088;5.296;2023-03-16T01:47:59;101615.0;;;5.74;78.33
64023;BME280;50264;52.088;5.296;2023-03-16T01:49:36;101617.0;;;5.59;75.89
64023;BME280;50264;52.088;5.296;2023-03-16T01:52:53;101611.0;;;5.83;77.89
64023;BME280;50264;52.088;5.296;2023-03-16T01:54:32;101605.0;;;5.86;76.91
64023;BME280;50264;52.088;5.296;2023-03-16T01:56:12;101602.0;;;5.75;78.38
64023;BME280;50264;52.088;5.296;2023-03-16T01:57:51;101591.0;;;5.81;77.97
64023;BME280;50264;52.088;5.296;2023-03-16T02:01:13;101589.0;;;5.83;76.22
64023;BME280;50264;52.088;5.296;2023-03-16T02:02:53;101589.0;;;5.85;76.36
64023;BME280;50264;52.088;5.296;2023-03-16T02:04:38;101588.0;;;5.98;77.06
64023;BME280;50264;52.088;5.296;2023-03-16T02:06:19;101588.0;;;5.9;76.87
64023;BME280;50264;52.088;5.296;2023-03-16T02:09:34;101582.0;;;5.84;76.7
64023;BME280;50264;52.088;5.296;2023-03-16T02:11:12;101576.0;;;5.85;78.27
64023;BME280;50264;52.088;5.296;2023-03-16T02:12:50;101580.0;;;5.94;76.27
64023;BME280;50264;52.088;5.296;2023-03-16T02:14:27;101574.0;;;5.91;77.49
64023;BME280;50264;52.088;5.296;2023-03-16T02:17:43;101572.0;;;5.85;76.53
64023;BME280;50264;52.088;5.296;2023-03-16T02:19:30;101568.0;;;6.02;75.39
64023;BME280;50264;52.088;5.296;2023-03-16T02:21:15;101567.0;;;5.97;76.06
64023;BME280;50264;52.088;5.296;2023-03-16T02:22:56;101563.0;;;5.96;76.27
64023;BME280;50264;52.088;5.296;2023-03-16T02:26:15;101557.0;;;5.94;77.81
64023;BME280;50264;52.088;5.296;2023-03-16T02:27:59;101564.0;;;5.87;76.64
64023;BME280;50264;52.088;5.296;2023-03-16T02:29:50;101559.0;;;6.04;76.16
64023;BME280;50264;52.088;5.296;2023-03-16T02:31:51;101551.0;;;5.89;77.58
64023;BME280;50264;52.088;5.296;2023-03-16T02:33:29;101555.0;;;5.87;78.48
64023;BME280;50264;52.088;5.296;2023-03-16T02:36:46;101553.0;;;5.94;79.88
64023;BME280;50264;52.088;5.296;2023-03-16T02:38:25;101547.0;;;5.95;78.22
64023;BME280;50264;52.088;5.296;2023-03-16T02:40:01;101548.0;;;6.02;79.05
64023;BME280;50264;52.088;5.296;2023-03-16T02:41:54;101550.0;;;5.98;79.37
64023;BME280;50264;52.088;5.296;2023-03-16T02:45:11;101553.0;;;5.96;78.52
64023;BME280;50264;52.088;5.296;2023-03-16T02:46:47;101557.0;;;6.0;78.16
64023;BME280;50264;52.088;5.296;2023-03-16T02:48:27;101551.0;;;5.88;80.74
64023;BME280;50264;52.088;5.296;2023-03-16T02:50:10;101557.0;;;5.94;79.31
64023;BME280;50264;52.088;5.296;2023-03-16T02:53:24;101560.0;;;5.97;78.19
64023;BME280;50264;52.088;5.296;2023-03-16T02:55:00;101567.0;;;5.97;78.11
64023;BME280;50264;52.088;5.296;2023-03-16T02:56:37;101564.0;;;5.99;79.25
64023;BME280;50264;52.088;5.296;2023-03-16T02:59:50;101571.0;;;6.03;79.13
64023;BME280;50264;52.088;5.296;2023-03-16T03:01:26;101566.0;;;5.93;79.44
64023;BME280;50264;52.088;5.296;2023-03-16T03:03:03;101570.0;;;5.89;80.17
64023;BME280;50264;52.088;5.296;2023-03-16T03:04:41;101565.0;;;5.93;79.75
64023;BME280;50264;52.088;5.296;2023-03-16T03:07:53;101566.0;;;5.9;81.78
64023;BME280;50264;52.088;5.296;2023-03-16T03:09:30;101558.0;;;5.9;81.19
64023;BME280;50264;52.088;5.296;2023-03-16T03:11:06;101557.0;;;5.99;80.22
64023;BME280;50264;52.088;5.296;2023-03-16T03:14:18;101549.0;;;5.96;80.58
64023;BME280;50264;52.088;5.296;2023-03-16T03:15:54;101550.0;;;5.95;81.37
64023;BME280;50264;52.088;5.296;2023-03-16T03:17:31;101547.0;;;5.91;82.56
64023;BME280;50264;52.088;5.296;2023-03-16T03:20:43;101544.0;;;5.88;81.89
64023;BME280;50264;52.088;5.296;2023-03-16T03:22:20;101544.0;;;5.85;82.11
64023;BME280;50264;52.088;5.296;2023-03-16T03:23:56;101543.0;;;5.87;84.87
64023;BME280;50264;52.088;5.296;2023-03-16T03:25:32;101545.0;;;5.73;82.69
64023;BME280;50264;52.088;5.296;2023-03-16T03:28:45;101541.0;;;5.73;85.64
64023;BME280;50264;52.088;5.296;2023-03-16T03:30:23;101538.0;;;5.71;83.88
64023;BME280;50264;52.088;5.296;2023-03-16T03:32:01;101539.0;;;5.72;84.42
64023;BME280;50264;52.088;5.296;2023-03-16T03:35:15;101540.0;;;5.62;84.79
64023;BME280;50264;52.088;5.296;2023-03-16T03:36:51;101542.0;;;5.76;85.45
64023;BME280;50264;52.088;5.296;2023-03-16T03:38:27;101532.0;;;5.75;86.06
64023;BME280;50264;52.088;5.296;2023-03-16T03:41:41;101522.0;;;5.72;85.84
64023;BME280;50264;52.088;5.296;2023-03-16T03:43:18;101524.0;;;5.82;83.86
64023;BME280;50264;52.088;5.296;2023-03-16T03:44:55;101519.0;;;5.8;84.94
64023;BME280;50264;52.088;5.296;2023-03-16T03:46:31;101522.0;;;5.7;86.1
64023;BME280;50264;52.088;5.296;2023-03-16T03:49:43;101516.0;;;5.72;86.65
64023;BME280;50264;52.088;5.296;2023-03-16T03:51:19;101516.0;;;5.62;87.02
64023;BME280;50264;52.088;5.296;2023-03-16T03:52:55;101516.0;;;5.75;87.35
64023;BME280;50264;52.088;5.296;2023-03-16T03:56:08;101520.0;;;5.6;87.89
64023;BME280;50264;52.088;5.296;2023-03-16T03:57:44;101519.0;;;5.58;88.05
64023;BME280;50264;52.088;5.296;2023-03-16T03:59:20;101511.0;;;5.48;87.75
64023;BME280;50264;52.088;5.296;2023-03-16T04:02:32;101508.0;;;5.52;89.18
64023;BME280;50264;52.088;5.296;2023-03-16T04:04:09;101506.0;;;5.48;89.04
64023;BME280;50264;52.088;5.296;2023-03-16T04:05:45;101508.0;;;5.45;88.67
64023;BME280;50264;52.088;5.296;2023-03-16T04:07:21;101498.0;;;5.62;87.94
64023;BME280;50264;52.088;5.296;2023-03-16T04:10:33;101492.0;;;5.5;89.68
64023;BME280;50264;52.088;5.296;2023-03-16T04:12:10;101488.0;;;5.46;90.0
64023;BME280;50264;52.088;5.296;2023-03-16T04:13:50;101485.0;;;5.5;89.91
64023;BME280;50264;52.088;5.296;2023-03-16T04:17:02;101485.0;;;5.43;90.37
64023;BME280;50264;52.088;5.296;2023-03-16T04:18:38;101482.0;;;5.46;90.42
64023;BME280;50264;52.088;5.296;2023-03-16T04:20:15;101486.0;;;5.43;90.25
64023;BME280;50264;52.088;5.296;2023-03-16T04:23:27;101481.0;;;5.42;90.56
64023;BME280;50264;52.088;5.296;2023-03-16T04:25:04;101480.0;;;5.52;89.63
64023;BME280;50264;52.088;5.296;2023-03-16T04:26:40;101480.0;;;5.37;88.95
64023;BME280;50264;52.088;5.296;2023-03-16T04:28:16;101482.0;;;5.33;90.88
64023;BME280;50264;52.088;5.296;2023-03-16T04:31:28;101480.0;;;5.36;89.63
64023;BME280;50264;52.088;5.296;2023-03-16T04:33:04;101482.0;;;5.39;90.0
64023;BME280;50264;52.088;5.296;2023-03-16T04:34:40;101484.0;;;5.38;89.41
64023;BME280;50264;52.088;5.296;2023-03-16T04:37:53;101482.0;;;5.29;89.96
64023;BME280;50264;52.088;5.296;2023-03-16T04:39:29;101482.0;;;5.38;88.9
64023;BME280;50264;52.088;5.296;2023-03-16T04:41:05;101481.0;;;5.35;89.46
64023;BME280;50264;52.088;5.296;2023-03-16T04:44:19;101480.0;;;5.42;89.45
64023;BME280;50264;52.088;5.296;2023-03-16T04:45:55;101484.0;;;5.41;88.64
64023;BME280;50264;52.088;5.296;2023-03-16T04:47:31;101480.0;;;5.57;87.75
64023;BME280;50264;52.088;5.296;2023-03-16T04:50:46;101480.0;;;5.63;87.9
64023;BME280;50264;52.088;5.296;2023-03-16T04:52:24;101473.0;;;5.6;88.69
64023;BME280;50264;52.088;5.296;2023-03-16T04:54:00;101469.0;;;5.6;86.97
64023;BME280;50264;52.088;5.296;2023-03-16T04:55:36;101472.0;;;5.6;87.17
64023;BME280;50264;52.088;5.296;2023-03-16T04:58:49;101468.0;;;5.64;86.68
64023;BME280;50264;52.088;5.296;2023-03-16T05:00:26;101467.0;;;5.59;88.18
64023;BME280;50264;52.088;5.296;2023-03-16T05:02:02;101461.0;;;5.51;86.0
64023;BME280;50264;52.088;5.296;2023-03-16T05:05:16;101467.0;;;5.54;85.58
64023;BME280;50264;52.088;5.296;2023-03-16T05:06:53;101467.0;;;5.6;87.03
64023;BME280;50264;52.088;5.296;2023-03-16T05:08:29;101472.0;;;5.58;85.1
64023;BME280;50264;52.088;5.296;2023-03-16T05:11:42;101472.0;;;5.58;86.32
64023;BME280;50264;52.088;5.296;2023-03-16T05:13:18;101473.0;;;5.58;86.4
64023;BME280;50264;52.088;5.296;2023-03-16T05:14:55;101474.0;;;5.59;86.28
64023;BME280;50264;52.088;5.296;2023-03-16T05:16:31;101471.0;;;5.65;87.41
64023;BME280;50264;52.088;5.296;2023-03-16T05:19:44;101467.0;;;5.7;86.11
64023;BME280;50264;52.088;5.296;2023-03-16T05:22:56;101470.0;;;5.64;86.19
64023;BME280;50264;52.088;5.296;2023-03-16T05:26:08;101469.0;;;5.68;86.39
64023;BME280;50264;52.088;5.296;2023-03-16T05:27:47;101470.0;;;5.64;86.42
64023;BME280;50264;52.088;5.296;2023-03-16T05:29:24;101472.0;;;5.6;86.12
64023;BME280;50264;52.088;5.296;2023-03-16T05:32:36;101468.0;;;5.65;87.46
64023;BME280;50264;52.088;5.296;2023-03-16T05:34:13;101471.0;;;5.71;86.6
64023;BME280;50264;52.088;5.296;2023-03-16T05:35:49;101462.0;;;5.8;87.77
64023;BME280;50264;52.088;5.296;2023-03-16T05:37:26;101464.0;;;5.65;87.2
64023;BME280;50264;52.088;5.296;2023-03-16T05:40:38;101460.0;;;5.54;86.89
64023;BME280;50264;52.088;5.296;2023-03-16T05:42:14;101458.0;;;5.64;87.38
64023;BME280;50264;52.088;5.296;2023-03-16T05:43:51;101457.0;;;5.68;87.01
64023;BME280;50264;52.088;5.296;2023-03-16T05:47:03;101451.0;;;5.73;86.31
64023;BME280;50264;52.088;5.296;2023-03-16T05:48:39;101451.0;;;5.71;86.28
64023;BME280;50264;52.088;5.296;2023-03-16T05:50:16;101450.0;;;5.75;87.91
64023;BME280;50264;52.088;5.296;2023-03-16T05:53:28;101448.0;;;5.71;87.63
64023;BME280;50264;52.088;5.296;2023-03-16T05:55:05;101444.0;;;5.68;87.82
64023;BME280;50264;52.088;5.296;2023-03-16T05:56:42;101448.0;;;5.61;87.13
64023;BME280;50264;52.088;5.296;2023-03-16T05:58:19;101446.0;;;5.52;88.05
64023;BME280;50264;52.088;5.296;2023-03-16T06:01:31;101443.0;;;5.53;87.32
64023;BME280;50264;52.088;5.296;2023-03-16T06:03:07;101445.0;;;5.6;88.7
64023;BME280;50264;52.088;5.296;2023-03-16T06:04:43;101446.0;;;5.68;88.09
64023;BME280;50264;52.088;5.296;2023-03-16T06:07:57;101447.0;;;5.66;88.44
64023;BME280;50264;52.088;5.296;2023-03-16T06:09:34;101445.0;;;5.66;88.99
64023;BME280;50264;52.088;5.296;2023-03-16T06:11:10;101441.0;;;5.62;87.74
64023;BME280;50264;52.088;5.296;2023-03-16T06:14:23;101441.0;;;5.75;87.9
64023;BME280;50264;52.088;5.296;2023-03-16T06:15:59;101439.0;;;5.69;87.11
64023;BME280;50264;52.088;5.296;2023-03-16T06:17:36;101445.0;;;5.66;87.9
64023;BME280;50264;52.088;5.296;2023-03-16T06:19:13;101444.0;;;5.79;88.01
64023;BME280;50264;52.088;5.296;2023-03-16T06:22:26;101435.0;;;5.83;87.57
64023;BME280;50264;52.088;5.296;2023-03-16T06:24:03;101441.0;;;5.86;87.17
64023;BME280;50264;52.088;5.296;2023-03-16T06:25:40;101444.0;;;5.78;87.23
64023;BME280;50264;52.088;5.296;2023-03-16T06:28:53;101439.0;;;5.74;86.38
64023;BME280;50264;52.088;5.296;2023-03-16T06:30:29;101435.0;;;5.66;87.39
64023;BME280;50264;52.088;5.296;2023-03-16T06:32:05;101432.0;;;5.8;88.46
64023;BME280;50264;52.088;5.296;2023-03-16T06:35:18;101425.0;;;5.86;87.69
64023;BME280;50264;52.088;5.296;2023-03-16T06:36:53;101422.0;;;5.87;88.03
64023;BME280;50264;52.088;5.296;2023-03-16T06:38:30;101422.0;;;5.86;87.15
64023;BME280;50264;52.088;5.296;2023-03-16T06:40:07;101420.0;;;5.98;86.79
64023;BME280;50264;52.088;5.296;2023-03-16T06:43:20;101423.0;;;5.97;87.67
64023;BME280;50264;52.088;5.296;2023-03-16T06:44:56;101419.0;;;5.94;87.92
64023;BME280;50264;52.088;5.296;2023-03-16T06:46:32;101418.0;;;5.93;88.27
64023;BME280;50264;52.088;5.296;2023-03-16T06:49:44;101412.0;;;5.8;87.94
64023;BME280;50264;52.088;5.296;2023-03-16T06:51:21;101410.0;;;5.97;87.53
64023;BME280;50264;52.088;5.296;2023-03-16T06:52:57;101411.0;;;5.95;87.31
64023;BME280;50264;52.088;5.296;2023-03-16T06:56:09;101417.0;;;5.98;88.55
64023;BME280;50264;52.088;5.296;2023-03-16T06:57:45;101421.0;;;6.16;88.22
64023;BME280;50264;52.088;5.296;2023-03-16T06:59:21;101415.0;;;6.05;88.81
64023;BME280;50264;52.088;5.296;2023-03-16T07:02:37;101412.0;;;6.04;88.38
64023;BME280;50264;52.088;5.296;2023-03-16T07:04:13;101410.0;;;6.13;88.81
64023;BME280;50264;52.088;5.296;2023-03-16T07:05:49;101407.0;;;6.25;87.49
64023;BME280;50264;52.088;5.296;2023-03-16T07:07:25;101407.0;;;6.33;87.62
64023;BME280;50264;52.088;5.296;2023-03-16T07:10:38;101409.0;;;6.35;86.43
64023;BME280;50264;52.088;5.296;2023-03-16T07:12:14;101408.0;;;6.35;86.34
64023;BME280;50264;52.088;5.296;2023-03-16T07:13:51;101406.0;;;6.24;86.14
64023;BME280;50264;52.088;5.296;2023-03-16T07:17:03;101402.0;;;6.27;86.01
64023;BME280;50264;52.088;5.296;2023-03-16T07:18:39;101402.0;;;6.3;88.64
64023;BME280;50264;52.088;5.296;2023-03-16T07:20:15;101406.0;;;6.17;86.82
64023;BME280;50264;52.088;5.296;2023-03-16T07:23:28;101401.0;;;6.28;88.44
64023;BME280;50264;52.088;5.296;2023-03-16T07:25:05;101406.0;;;6.08;87.93
64023;BME280;50264;52.088;5.296;2023-03-16T07:26:42;101403.0;;;6.11;88.45
64023;BME280;50264;52.088;5.296;2023-03-16T07:28:18;101403.0;;;6.23;89.62
64023;BME280;50264;52.088;5.296;2023-03-16T07:31:32;101405.0;;;6.31;90.54
64023;BME280;50264;52.088;5.296;2023-03-16T07:33:07;101392.0;;;6.2;88.93
64023;BME280;50264;52.088;5.296;2023-03-16T07:34:44;101390.0;;;6.2;90.04
64023;BME280;50264;52.088;5.296;2023-03-16T07:37:56;101392.0;;;6.29;90.6
64023;BME280;50264;52.088;5.296;2023-03-16T07:39:32;101389.0;;;6.36;89.23
64023;BME280;50264;52.088;5.296;2023-03-16T07:41:08;101390.0;;;6.27;90.36
64023;BME280;50264;52.088;5.296;2023-03-16T07:44:20;101397.0;;;6.44;89.71
64023;BME280;50264;52.088;5.296;2023-03-16T07:45:57;101398.0;;;6.43;90.49
64023;BME280;50264;52.088;5.296;2023-03-16T07:47:33;101400.0;;;6.44;89.55
64023;BME280;50264;52.088;5.296;2023-03-16T07:49:10;101392.0;;;6.38;89.16
64023;BME280;50264;52.088;5.296;2023-03-16T07:52:23;101401.0;;;6.28;89.41
64023;BME280;50264;52.088;5.296;2023-03-16T07:53:59;101408.0;;;6.35;89.12
64023;BME280;50264;52.088;5.296;2023-03-16T07:55:35;101416.0;;;6.37;89.99
64023;BME280;50264;52.088;5.296;2023-03-16T07:58:47;101413.0;;;6.26;88.24
64023;BME280;50264;52.088;5.296;2023-03-16T08:00:24;101413.0;;;6.28;89.19
64023;BME280;50264;52.088;5.296;2023-03-16T08:02:00;101405.0;;;6.39;90.11
64023;BME280;50264;52.088;5.296;2023-03-16T08:05:13;101398.0;;;6.38;89.75
64023;BME280;50264;52.088;5.296;2023-03-16T08:06:49;101399.0;;;6.37;88.78
64023;BME280;50264;52.088;5.296;2023-03-16T08:08:25;101389.0;;;6.53;88.91
64023;BME280;50264;52.088;5.296;2023-03-16T08:10:02;101385.0;;;6.63;89.05
64023;BME280;50264;52.088;5.296;2023-03-16T08:13:15;101381.0;;;6.68;88.33
64023;BME280;50264;52.088;5.296;2023-03-16T08:14:51;101383.0;;;6.7;86.56
64023;BME280;50264;52.088;5.296;2023-03-16T08:16:27;101380.0;;;6.84;88.5
64023;BME280;50264;52.088;5.296;2023-03-16T08:19:39;101368.0;;;6.86;88.03
64023;BME280;50264;52.088;5.296;2023-03-16T08:21:15;101376.0;;;6.83;84.96
64023;BME280;50264;52.088;5.296;2023-03-16T08:26:05;101368.0;;;6.86;87.54
64023;BME280;50264;52.088;5.296;2023-03-16T08:27:41;101371.0;;;6.81;83.9
64023;BME280;50264;52.088;5.296;2023-03-16T08:29:17;101368.0;;;6.89;83.47
64023;BME280;50264;52.088;5.296;2023-03-16T08:32:30;101375.0;;;6.9;82.6
64023;BME280;50264;52.088;5.296;2023-03-16T08:34:07;101373.0;;;6.91;83.08
64023;BME280;50264;52.088;5.296;2023-03-16T08:35:45;101381.0;;;7.01;83.61
64023;BME280;50264;52.088;5.296;2023-03-16T08:37:23;101382.0;;;7.05;83.06
64023;BME280;50264;52.088;5.296;2023-03-16T08:40:35;101393.0;;;7.12;85.14
64023;BME280;50264;52.088;5.296;2023-03-16T08:42:12;101384.0;;;7.13;82.81
64023;BME280;50264;52.088;5.296;2023-03-16T08:43:48;101392.0;;;7.13;81.08
64023;BME280;50264;52.088;5.296;2023-03-16T08:47:00;101391.0;;;7.23;83.39
64023;BME280;50264;52.088;5.296;2023-03-16T08:48:36;101390.0;;;7.24;81.47
64023;BME280;50264;52.088;5.296;2023-03-16T08:50:12;101391.0;;;7.26;80.67
64023;BME280;50264;52.088;5.296;2023-03-16T08:53:25;101391.0;;;7.24;80.28
64023;BME280;50264;52.088;5.296;2023-03-16T08:55:01;101386.0;;;7.24;81.14
64023;BME280;50264;52.088;5.296;2023-03-16T08:56:38;101383.0;;;7.39;80.91
64023;BME280;50264;52.088;5.296;2023-03-16T08:58:14;101391.0;;;7.29;80.5
64023;BME280;50264;52.088;5.296;2023-03-16T09:01:26;101377.0;;;7.46;80.63
64023;BME280;50264;52.088;5.296;2023-03-16T09:03:03;101383.0;;;7.39;79.08
64023;BME280;50264;52.088;5.296;2023-03-16T09:04:41;101376.0;;;7.47;80.99
64023;BME280;50264;52.088;5.296;2023-03-16T09:07:54;101374.0;;;7.6;78.88
64023;BME280;50264;52.088;5.296;2023-03-16T09:09:30;101368.0;;;7.68;80.09
64023;BME280;50264;52.088;5.296;2023-03-16T09:11:09;101364.0;;;7.69;78.66
64023;BME280;50264;52.088;5.296;2023-03-16T09:14:21;101366.0;;;7.68;78.7
64023;BME280;50264;52.088;5.296;2023-03-16T09:15:57;101370.0;;;7.69;77.13
64023;BME280;50264;52.088;5.296;2023-03-16T09:17:33;101362.0;;;7.65;76.47
64023;BME280;50264;52.088;5.296;2023-03-16T09:19:10;101371.0;;;7.66;77.58
64023;BME280;50264;52.088;5.296;2023-03-16T09:24:37;101367.0;;;7.6;76.74
64023;BME280;50264;52.088;5.296;2023-03-16T09:26:13;101368.0;;;7.71;76.09
64023;BME280;50264;52.088;5.296;2023-03-16T09:27:49;101375.0;;;7.69;76.39
64023;BME280;50264;52.088;5.296;2023-03-16T09:31:02;101363.0;;;7.79;75.28
64023;BME280;50264;52.088;5.296;2023-03-16T09:32:39;101362.0;;;7.91;77.62
64023;BME280;50264;52.088;5.296;2023-03-16T09:34:15;101361.0;;;7.98;76.33
64023;BME280;50264;52.088;5.296;2023-03-16T09:35:52;101358.0;;;7.95;75.95
64023;BME280;50264;52.088;5.296;2023-03-16T09:39:04;101363.0;;;7.92;74.94
64023;BME280;50264;52.088;5.296;2023-03-16T09:40:40;101368.0;;;8.06;75.0
64023;BME280;50264;52.088;5.296;2023-03-16T09:42:18;101360.0;;;8.06;74.27
64023;BME280;50264;52.088;5.296;2023-03-16T09:45:57;101352.0;;;8.06;74.55
64023;BME280;50264;52.088;5.296;2023-03-16T09:47:39;101344.0;;;8.14;74.27
64023;BME280;50264;52.088;5.296;2023-03-16T09:49:18;101351.0;;;8.36;74.41
64023;BME280;50264;52.088;5.296;2023-03-16T09:50:56;101358.0;;;8.4;74.69
64023;BME280;50264;52.088;5.296;2023-03-16T09:52:40;101346.0;;;8.38;72.84
64023;BME280;50264;52.088;5.296;2023-03-16T09:56:08;101342.0;;;8.33;72.69
64023;BME280;50264;52.088;5.296;2023-03-16T09:57:46;101340.0;;;8.52;74.87
64023;BME280;50264;52.088;5.296;2023-03-16T09:59:23;101346.0;;;8.6;72.52
64023;BME280;50264;52.088;5.296;2023-03-16T10:01:06;101344.0;;;8.81;74.17
64023;BME280;50264;52.088;5.296;2023-03-16T10:04:54;101341.0;;;8.97;75.36
64023;BME280;50264;52.088;5.296;2023-03-16T10:06:47;101330.0;;;9.11;73.02
64023;BME280;50264;52.088;5.296;2023-03-16T10:08:30;101325.0;;;9.21;69.52
64023;BME280;50264;52.088;5.296;2023-03-16T10:10:20;101338.0;;;9.34;67.97
64023;BME280;50264;52.088;5.296;2023-03-16T10:12:03;101338.0;;;9.39;68.83
64023;BME280;50264;52.088;5.296;2023-03-16T10:13:46;101327.0;;;9.14;67.64
64023;BME280;50264;52.088;5.296;2023-03-16T10:17:10;101323.0;;;9.21;67.66
64023;BME280;50264;52.088;5.296;2023-03-16T10:18:56;101322.0;;;9.3;70.94
64023;BME280;50264;52.088;5.296;2023-03-16T10:20:36;101320.0;;;9.31;67.36
64023;BME280;50264;52.088;5.296;2023-03-16T10:22:18;101317.0;;;9.34;67.35
64023;BME280;50264;52.088;5.296;2023-03-16T10:23:56;101331.0;;;9.46;66.63
64023;BME280;50264;52.088;5.296;2023-03-16T10:27:24;101325.0;;;9.61;66.89
64023;BME280;50264;52.088;5.296;2023-03-16T10:29:03;101321.0;;;9.76;65.13
64023;BME280;50264;52.088;5.296;2023-03-16T10:30:41;101315.0;;;9.92;66.67
64023;BME280;50264;52.088;5.296;2023-03-16T10:32:18;101316.0;;;10.07;66.97
64023;BME280;50264;52.088;5.296;2023-03-16T10:35:43;101311.0;;;10.14;65.05
64023;BME280;50264;52.088;5.296;2023-03-16T10:37:21;101317.0;;;10.27;65.42
64023;BME280;50264;52.088;5.296;2023-03-16T10:39:03;101302.0;;;10.42;62.85
64023;BME280;50264;52.088;5.296;2023-03-16T10:40:40;101302.0;;;10.6;62.7
64023;BME280;50264;52.088;5.296;2023-03-16T10:43:57;101298.0;;;10.73;63.34
64023;BME280;50264;52.088;5.296;2023-03-16T10:45:35;101299.0;;;10.79;63.0
64023;BME280;50264;52.088;5.296;2023-03-16T10:47:17;101294.0;;;11.02;63.22
64023;BME280;50264;52.088;5.296;2023-03-16T10:50:32;101292.0;;;10.85;61.33
64023;BME280;50264;52.088;5.296;2023-03-16T10:52:13;101303.0;;;10.89;62.54
64023;BME280;50264;52.088;5.296;2023-03-16T10:53:56;101295.0;;;10.69;62.12
64023;BME280;50264;52.088;5.296;2023-03-16T10:55:41;101301.0;;;10.79;62.17
64023;BME280;50264;52.088;5.296;2023-03-16T10:59:27;101292.0;;;10.76;62.35
64023;BME280;50264;52.088;5.296;2023-03-16T11:01:09;101286.0;;;10.84;60.3
64023;BME280;50264;52.088;5.296;2023-03-16T11:02:46;101285.0;;;11.04;61.27
64023;BME280;50264;52.088;5.296;2023-03-16T11:04:23;101282.0;;;11.17;64.86
64023;BME280;50264;52.088;5.296;2023-03-16T11:06:00;101272.0;;;11.24;63.95
64023;BME280;50264;52.088;5.296;2023-03-16T11:09:19;101285.0;;;11.26;59.49
64023;BME280;50264;52.088;5.296;2023-03-16T11:12:35;101284.0;;;11.05;60.33
64023;BME280;50264;52.088;5.296;2023-03-16T11:14:12;101284.0;;;10.98;59.44
64023;BME280;50264;52.088;5.296;2023-03-16T11:15:54;101273.0;;;10.96;59.32
64023;BME280;50264;52.088;5.296;2023-03-16T11:17:35;101280.0;;;10.88;59.48
64023;BME280;50264;52.088;5.296;2023-03-16T11:19:18;101268.0;;;10.91;60.27
64023;BME280;50264;52.088;5.296;2023-03-16T11:20:57;101263.0;;;10.95;60.16